createdAt,value
2024-01-05T00:00:37.848Z,98693.31
2024-01-05T00:01:19.587Z,98688.41
2024-01-05T00:02:01.222Z,98693.44
2024-01-05T00:02:42.919Z,98690.16
2024-01-05T00:03:24.833Z,98687.06
2024-01-05T00:04:06.827Z,98617.94
2024-01-05T00:04:48.664Z,98680.09
2024-01-05T00:05:30.465Z,98675.03
2024-01-05T00:06:12.597Z,98670.28
2024-01-05T00:06:54.682Z,98599.13
2024-01-05T00:07:36.585Z,98678.66
2024-01-05T00:08:18.348Z,98672.09
2024-01-05T00:09:00.203Z,98672.28
2024-01-05T00:09:42.039Z,98669.56
2024-01-05T00:10:23.787Z,98614.59
2024-01-05T00:11:05.549Z,98652.94
2024-01-05T00:11:49.517Z,98594.84
2024-01-05T00:12:31.224Z,98660.50
2024-01-05T00:13:12.871Z,98664.97
2024-01-05T00:13:54.424Z,98660.16
2024-01-05T00:14:39.138Z,98563.47
2024-01-05T00:15:20.969Z,98630.09
2024-01-05T00:16:08.560Z,98662.16
2024-01-05T00:16:50.622Z,98581.16
2024-01-05T00:17:32.370Z,98576.25
2024-01-05T00:18:14.225Z,98665.50
2024-01-05T00:18:56.021Z,98669.22
2024-01-05T00:19:37.964Z,98646.72
2024-01-05T00:20:19.764Z,98659.41
2024-01-05T00:21:01.583Z,98654.78
2024-01-05T00:21:43.336Z,98656.78
2024-01-05T00:22:25.287Z,98662.41
2024-01-05T00:23:06.882Z,98652.41
2024-01-05T00:23:49.918Z,98653.81
2024-01-05T00:24:31.676Z,98658.06
2024-01-05T00:25:13.407Z,98596.66
2024-01-05T00:25:56.191Z,98615.13
2024-01-05T00:26:41.808Z,98652.53
2024-01-05T00:27:23.578Z,98653.69
2024-01-05T00:28:05.584Z,98657.53
2024-01-05T00:28:48.759Z,98668.84
2024-01-05T00:29:30.632Z,98602.38
2024-01-05T00:30:12.639Z,98658.69
2024-01-05T00:30:54.680Z,98655.59
2024-01-05T00:31:36.689Z,98632.38
2024-01-05T00:32:19.160Z,98660.50
2024-01-05T00:33:01.812Z,98600.28
2024-01-05T00:33:45.203Z,98650.81
2024-01-05T00:34:27.000Z,98650.88
2024-01-05T00:35:08.946Z,98654.78
2024-01-05T00:35:50.664Z,98663.31
2024-01-05T00:36:32.393Z,98660.22
2024-01-05T00:37:14.062Z,98666.13
2024-01-05T00:37:55.684Z,98665.13
2024-01-05T00:38:37.949Z,98661.03
2024-01-05T00:39:19.593Z,98659.88
2024-01-05T00:40:01.227Z,98644.72
2024-01-05T00:40:42.972Z,98664.03
2024-01-05T00:41:24.833Z,98665.31
2024-01-05T00:42:06.898Z,98651.88
2024-01-05T00:42:48.509Z,98641.28
2024-01-05T00:43:30.423Z,98657.59
2024-01-05T00:44:12.057Z,98652.69
2024-01-05T00:44:53.782Z,98595.91
2024-01-05T00:45:36.168Z,98651.25
2024-01-05T00:46:17.876Z,98662.84
2024-01-05T00:46:59.520Z,98655.78
2024-01-05T00:47:41.384Z,98642.09
2024-01-05T00:48:24.537Z,98650.88
2024-01-05T00:49:07.170Z,98658.13
2024-01-05T00:49:49.068Z,98650.16
2024-01-05T00:50:30.776Z,98669.75
2024-01-05T00:51:12.469Z,98664.69
2024-01-05T00:51:54.131Z,98668.47
2024-01-05T00:52:35.760Z,98604.91
2024-01-05T00:53:17.497Z,98650.63
2024-01-05T00:53:59.206Z,98590.28
2024-01-05T00:54:41.889Z,98660.75
2024-01-05T00:55:25.299Z,98658.53
2024-01-05T00:56:07.194Z,98652.50
2024-01-05T00:56:49.020Z,98645.34
2024-01-05T00:57:30.839Z,98656.03
2024-01-05T00:58:12.570Z,98631.84
2024-01-05T00:58:54.242Z,98648.69
2024-01-05T00:59:36.203Z,98611.13
2024-01-05T01:00:18.155Z,98641.06
2024-01-05T01:01:00.037Z,98595.81
2024-01-05T01:01:42.327Z,98639.91
2024-01-05T01:02:24.254Z,98612.50
2024-01-05T01:03:06.134Z,98659.75
2024-01-05T01:03:48.003Z,98647.78
2024-01-05T01:04:29.862Z,98629.00
2024-01-05T01:05:12.218Z,98645.84
2024-01-05T01:05:54.091Z,98648.84
2024-01-05T01:06:35.904Z,98639.34
2024-01-05T01:07:17.679Z,98651.03
2024-01-05T01:07:59.449Z,98641.25
2024-01-05T01:08:41.143Z,98660.69
2024-01-05T01:09:22.806Z,98651.84
2024-01-05T01:10:04.819Z,98659.22
2024-01-05T01:10:46.473Z,98657.25
2024-01-05T01:11:28.878Z,98660.19
2024-01-05T01:12:10.845Z,98641.19
2024-01-05T01:12:52.669Z,98649.84
2024-01-05T01:13:34.298Z,98579.78
2024-01-05T01:14:16.091Z,98643.78
2024-01-05T01:14:57.781Z,98657.38
2024-01-05T01:15:39.604Z,98665.38
2024-01-05T01:16:21.292Z,98652.03
2024-01-05T01:17:03.107Z,98665.53
2024-01-05T01:17:45.273Z,98662.09
2024-01-05T01:18:28.930Z,98615.13
2024-01-05T01:19:10.816Z,98665.25
2024-01-05T01:19:52.673Z,98664.09
2024-01-05T01:20:34.468Z,98636.34
2024-01-05T01:21:16.133Z,98662.56
2024-01-05T01:21:57.819Z,98651.56
2024-01-05T01:22:39.596Z,98640.88
2024-01-05T01:23:21.365Z,98665.09
2024-01-05T01:24:03.254Z,98655.03
2024-01-05T01:24:44.943Z,98643.97
2024-01-05T01:25:26.636Z,98662.19
2024-01-05T01:26:08.331Z,98667.09
2024-01-05T01:26:50.115Z,98658.06
2024-01-05T01:27:31.988Z,98660.75
2024-01-05T01:28:13.736Z,98661.69
2024-01-05T01:28:55.446Z,98624.94
2024-01-05T01:29:37.104Z,98645.16
2024-01-05T01:30:18.887Z,98627.56
2024-01-05T01:31:00.838Z,98638.91
2024-01-05T01:31:42.584Z,98626.50
2024-01-05T01:32:24.189Z,98643.19
2024-01-05T01:33:06.022Z,98559.31
2024-01-05T01:33:47.773Z,98642.09
2024-01-05T01:34:29.520Z,98628.81
2024-01-05T01:35:11.236Z,98626.38
2024-01-05T01:35:53.117Z,98615.66
2024-01-05T01:36:34.955Z,98617.94
2024-01-05T01:37:16.655Z,98620.75
2024-01-05T01:37:58.412Z,98609.81
2024-01-05T01:38:40.094Z,98611.63
2024-01-05T01:39:21.933Z,98604.56
2024-01-05T01:40:06.033Z,98609.41
2024-01-05T01:40:48.733Z,98605.25
2024-01-05T01:41:30.327Z,98602.09
2024-01-05T01:42:12.332Z,98598.09
2024-01-05T01:42:54.697Z,98601.19
2024-01-05T01:43:36.478Z,98602.03
2024-01-05T01:44:18.665Z,98580.78
2024-01-05T01:45:00.436Z,98601.84
2024-01-05T01:45:42.232Z,98594.22
2024-01-05T01:46:24.499Z,98598.53
2024-01-05T01:47:06.518Z,98606.63
2024-01-05T01:47:49.264Z,98601.34
2024-01-05T01:48:31.823Z,98614.81
2024-01-05T01:49:13.920Z,98590.84
2024-01-05T01:49:58.456Z,98599.84
2024-01-05T01:50:40.326Z,98604.00
2024-01-05T01:51:22.941Z,98614.34
2024-01-05T01:52:05.171Z,98602.31
2024-01-05T01:52:48.538Z,98621.88
2024-01-05T01:53:30.405Z,98624.06
2024-01-05T01:54:12.269Z,98613.88
2024-01-05T01:54:54.089Z,98614.97
2024-01-05T01:55:36.301Z,98616.69
2024-01-05T01:56:17.963Z,98616.41
2024-01-05T01:57:00.237Z,98617.13
2024-01-05T01:57:42.246Z,98613.78
2024-01-05T01:58:25.569Z,98606.53
2024-01-05T01:59:07.467Z,98612.44
2024-01-05T01:59:49.629Z,98561.66
2024-01-05T02:00:32.400Z,98590.41
2024-01-05T02:01:14.575Z,98607.16
2024-01-05T02:01:57.672Z,98603.53
2024-01-05T02:02:39.387Z,98594.84
2024-01-05T02:03:21.840Z,98603.81
2024-01-05T02:04:05.109Z,98598.66
2024-01-05T02:04:52.095Z,98601.00
2024-01-05T02:05:33.912Z,98604.09
2024-01-05T02:06:15.763Z,98584.22
2024-01-05T02:06:58.045Z,98597.28
2024-01-05T02:07:40.017Z,98599.91
2024-01-05T02:08:22.146Z,98593.81
2024-01-05T02:09:05.642Z,98573.38
2024-01-05T02:09:47.383Z,98590.31
2024-01-05T02:10:29.439Z,98593.28
2024-01-05T02:11:11.141Z,98585.75
2024-01-05T02:11:52.967Z,98591.22
2024-01-05T02:12:34.741Z,98572.81
2024-01-05T02:13:16.839Z,98583.59
2024-01-05T02:13:58.625Z,98580.31
2024-01-05T02:14:40.788Z,98569.28
2024-01-05T02:15:42.396Z,98582.78
2024-01-05T02:16:44.500Z,98565.00
2024-01-05T02:17:46.883Z,98576.53
2024-01-05T02:18:28.849Z,98580.44
2024-01-05T02:19:10.843Z,98583.69
2024-01-05T02:19:52.618Z,98508.94
2024-01-05T02:20:34.294Z,98592.94
2024-01-05T02:21:16.374Z,98592.28
2024-01-05T02:22:02.075Z,98584.50
2024-01-05T02:22:52.478Z,98595.00
2024-01-05T02:23:34.173Z,98576.78
2024-01-05T02:24:15.810Z,98582.75
2024-01-05T02:25:01.554Z,98578.50
2024-01-05T02:25:43.458Z,98582.13
2024-01-05T02:26:25.431Z,98580.13
2024-01-05T02:27:07.127Z,98543.28
2024-01-05T02:27:48.793Z,98567.78
2024-01-05T02:28:30.458Z,98584.09
2024-01-05T02:29:12.364Z,98589.53
2024-01-05T02:29:54.374Z,98579.56
2024-01-05T02:30:36.646Z,98586.91
2024-01-05T02:31:18.405Z,98576.78
2024-01-05T02:32:00.116Z,98586.09
2024-01-05T02:32:41.805Z,98554.75
2024-01-05T02:33:25.229Z,98564.06
2024-01-05T02:34:07.365Z,98574.66
2024-01-05T02:34:49.153Z,98496.06
2024-01-05T02:35:30.825Z,98569.50
2024-01-05T02:36:12.555Z,98560.69
2024-01-05T02:36:54.267Z,98563.94
2024-01-05T02:37:36.024Z,98561.69
2024-01-05T02:38:17.980Z,98560.69
2024-01-05T02:38:59.654Z,98563.94
2024-01-05T02:39:41.304Z,98563.78
2024-01-05T02:40:22.971Z,98553.44
2024-01-05T02:41:08.030Z,98555.56
2024-01-05T02:41:49.798Z,98552.16
2024-01-05T02:42:31.468Z,98536.50
2024-01-05T02:43:14.629Z,98561.97
2024-01-05T02:43:56.313Z,98554.28
2024-01-05T02:44:37.933Z,98553.91
2024-01-05T02:45:24.340Z,98541.22
2024-01-05T02:46:06.000Z,98559.34
2024-01-05T02:46:47.640Z,98528.97
2024-01-05T02:47:29.330Z,98551.00
2024-01-05T02:48:11.237Z,98546.91
2024-01-05T02:48:53.220Z,98569.38
2024-01-05T02:49:35.018Z,98555.59
2024-01-05T02:50:17.110Z,98553.34
2024-01-05T02:50:58.755Z,98552.06
2024-01-05T02:51:41.130Z,98568.34
2024-01-05T02:52:22.864Z,98493.75
2024-01-05T02:53:04.627Z,98495.56
2024-01-05T02:53:46.235Z,98558.38
2024-01-05T02:54:29.471Z,98493.94
2024-01-05T02:55:11.791Z,98562.81
2024-01-05T02:55:53.509Z,98561.19
2024-01-05T02:56:35.218Z,98558.72
2024-01-05T02:57:16.888Z,98473.88
2024-01-05T02:57:58.543Z,98538.97
2024-01-05T02:58:40.155Z,98549.41
2024-01-05T02:59:21.790Z,98558.72
2024-01-05T03:00:04.560Z,98531.44
2024-01-05T03:00:48.192Z,98546.13
2024-01-05T03:01:30.011Z,98540.97
2024-01-05T03:02:11.698Z,98554.66
2024-01-05T03:02:53.500Z,98531.94
2024-01-05T03:03:35.211Z,98492.22
2024-01-05T03:04:17.009Z,98552.53
2024-01-05T03:04:59.376Z,98549.84
2024-01-05T03:05:43.009Z,98385.41
2024-01-05T03:06:25.017Z,98538.06
2024-01-05T03:07:09.114Z,98532.63
2024-01-05T03:07:50.823Z,98547.69
2024-01-05T03:08:32.490Z,98522.69
2024-01-05T03:09:14.828Z,98531.53
2024-01-05T03:09:56.459Z,98510.03
2024-01-05T03:10:38.211Z,98527.34
2024-01-05T03:11:20.249Z,98515.03
2024-01-05T03:12:02.010Z,98534.31
2024-01-05T03:12:43.725Z,98533.47
2024-01-05T03:13:25.370Z,98522.81
2024-01-05T03:14:07.470Z,98524.44
2024-01-05T03:14:49.128Z,98524.88
2024-01-05T03:15:30.777Z,98420.69
2024-01-05T03:16:12.491Z,98522.03
2024-01-05T03:16:54.113Z,98522.28
2024-01-05T03:17:35.947Z,98510.97
2024-01-05T03:18:18.017Z,98518.34
2024-01-05T03:18:59.878Z,98447.09
2024-01-05T03:19:41.580Z,98421.00
2024-01-05T03:20:23.316Z,98521.03
2024-01-05T03:21:06.450Z,98516.97
2024-01-05T03:21:48.104Z,98519.13
2024-01-05T03:22:31.950Z,98517.56
2024-01-05T03:23:15.882Z,98514.81
2024-01-05T03:23:57.796Z,98511.75
2024-01-05T03:24:41.319Z,98511.56
2024-01-05T03:25:23.221Z,98514.63
2024-01-05T03:26:09.504Z,98516.91
2024-01-05T03:26:51.286Z,98482.13
2024-01-05T03:27:33.338Z,98502.00
2024-01-05T03:28:15.381Z,98514.50
2024-01-05T03:28:57.257Z,98509.59
2024-01-05T03:29:38.947Z,98509.69
2024-01-05T03:30:21.207Z,98513.38
2024-01-05T03:31:03.246Z,98495.13
2024-01-05T03:31:46.224Z,98499.41
2024-01-05T03:32:29.043Z,98496.59
2024-01-05T03:33:11.328Z,98507.91
2024-01-05T03:33:53.169Z,98502.03
2024-01-05T03:34:36.227Z,98501.56
2024-01-05T03:35:17.949Z,98503.69
2024-01-05T03:35:59.614Z,98498.81
2024-01-05T03:36:42.373Z,98494.56
2024-01-05T03:37:24.200Z,98499.66
2024-01-05T03:38:05.996Z,98497.47
2024-01-05T03:38:47.632Z,98486.69
2024-01-05T03:39:29.305Z,98498.59
2024-01-05T03:40:11.174Z,98494.84
2024-01-05T03:40:52.826Z,98503.81
2024-01-05T03:41:36.349Z,98489.16
2024-01-05T03:42:19.213Z,98496.47
2024-01-05T03:43:00.955Z,98481.97
2024-01-05T03:43:42.605Z,98412.84
2024-01-05T03:44:25.870Z,98406.94
2024-01-05T03:45:50.790Z,98487.16
2024-01-05T03:46:32.525Z,98499.75
2024-01-05T03:47:14.128Z,98503.19
2024-01-05T03:47:55.884Z,98493.22
2024-01-05T03:48:38.189Z,98499.09
2024-01-05T03:49:20.131Z,98501.06
2024-01-05T03:50:01.947Z,98489.97
2024-01-05T03:50:44.084Z,98492.38
2024-01-05T03:51:26.892Z,98486.97
2024-01-05T03:52:10.759Z,98489.59
2024-01-05T03:52:53.000Z,98484.34
2024-01-05T03:53:34.666Z,98496.94
2024-01-05T03:54:16.526Z,98494.78
2024-01-05T03:55:01.355Z,98455.41
2024-01-05T03:55:43.461Z,98483.59
2024-01-05T03:56:25.064Z,98483.06
2024-01-05T03:57:06.970Z,98492.41
2024-01-05T03:57:49.068Z,98476.44
2024-01-05T03:58:30.757Z,98476.28
2024-01-05T03:59:12.469Z,98441.22
2024-01-05T03:59:54.258Z,98480.53
2024-01-05T04:00:36.298Z,98473.13
2024-01-05T04:01:20.333Z,98466.97
2024-01-05T04:02:02.087Z,98482.63
2024-01-05T04:02:43.822Z,98454.38
2024-01-05T04:03:25.749Z,98480.09
2024-01-05T04:04:08.911Z,98480.03
2024-01-05T04:04:50.872Z,98476.31
2024-01-05T04:05:33.236Z,98475.81
2024-01-05T04:06:21.169Z,98481.47
2024-01-05T04:07:04.023Z,98465.81
2024-01-05T04:07:45.681Z,98408.13
2024-01-05T04:08:27.662Z,98474.34
2024-01-05T04:09:12.132Z,98476.16
2024-01-05T04:09:53.799Z,98467.63
2024-01-05T04:10:36.781Z,98479.94
2024-01-05T04:11:21.339Z,98459.38
2024-01-05T04:12:03.295Z,98468.63
2024-01-05T04:12:45.092Z,98457.66
2024-01-05T04:13:27.977Z,98460.28
2024-01-05T04:14:12.309Z,98449.63
2024-01-05T04:14:54.159Z,98467.28
2024-01-05T04:15:40.349Z,98460.22
2024-01-05T04:16:22.180Z,98458.59
2024-01-05T04:17:04.900Z,98458.59
2024-01-05T04:17:46.534Z,98437.56
2024-01-05T04:18:28.515Z,98441.38
2024-01-05T04:19:11.278Z,98454.53
2024-01-05T04:19:53.122Z,98451.16
2024-01-05T04:20:34.807Z,98447.19
2024-01-05T04:21:16.641Z,98437.31
2024-01-05T04:21:58.377Z,98437.03
2024-01-05T04:22:40.146Z,98442.63
2024-01-05T04:23:22.009Z,98445.09
2024-01-05T04:24:04.999Z,98448.81
2024-01-05T04:24:46.644Z,98427.69
2024-01-05T04:25:28.311Z,98447.72
2024-01-05T04:26:10.241Z,98452.59
2024-01-05T04:26:52.005Z,98451.84
2024-01-05T04:27:35.236Z,98450.25
2024-01-05T04:28:17.273Z,98449.16
2024-01-05T04:28:58.924Z,98442.81
2024-01-05T04:29:40.884Z,98442.28
2024-01-05T04:30:22.611Z,98448.28
2024-01-05T04:31:08.644Z,98421.03
2024-01-05T04:31:51.815Z,98387.97
2024-01-05T04:32:35.005Z,98434.22
2024-01-05T04:33:17.097Z,98438.13
2024-01-05T04:33:59.258Z,98376.72
2024-01-05T04:34:41.148Z,98427.72
2024-01-05T04:35:23.793Z,98431.78
2024-01-05T04:36:06.317Z,98425.44
2024-01-05T04:36:48.729Z,98412.03
2024-01-05T04:37:30.940Z,98436.03
2024-01-05T04:38:12.618Z,98425.34
2024-01-05T04:38:54.312Z,98432.06
2024-01-05T04:39:36.064Z,98321.19
2024-01-05T04:40:18.867Z,98379.13
2024-01-05T04:41:00.641Z,98437.38
2024-01-05T04:41:42.842Z,98430.31
2024-01-05T04:42:24.878Z,98377.03
2024-01-05T04:43:06.528Z,98435.50
2024-01-05T04:43:48.337Z,98430.78
2024-01-05T04:44:29.978Z,98423.91
2024-01-05T04:45:12.884Z,98412.03
2024-01-05T04:45:57.536Z,98434.41
2024-01-05T04:46:39.208Z,98432.41
2024-01-05T04:47:20.882Z,98436.50
2024-01-05T04:48:02.692Z,98430.88
2024-01-05T04:48:44.508Z,98428.84
2024-01-05T04:49:27.756Z,98430.78
2024-01-05T04:50:11.249Z,98359.72
2024-01-05T04:50:52.931Z,98441.56
2024-01-05T04:51:35.653Z,98434.91
2024-01-05T04:52:18.067Z,98446.88
2024-01-05T04:53:01.026Z,98437.19
2024-01-05T04:53:42.784Z,98419.50
2024-01-05T04:54:24.685Z,98443.59
2024-01-05T04:55:06.736Z,98353.66
2024-01-05T04:55:48.520Z,98396.91
2024-01-05T04:56:30.695Z,98427.00
2024-01-05T04:57:12.343Z,98355.38
2024-01-05T04:57:53.988Z,98433.91
2024-01-05T04:58:35.651Z,98429.19
2024-01-05T04:59:18.764Z,98430.72
2024-01-05T05:00:00.618Z,98430.72
2024-01-05T05:00:42.460Z,98431.28
2024-01-05T05:01:24.221Z,98415.19
2024-01-05T05:02:06.210Z,98358.00
2024-01-05T05:02:48.162Z,98414.81
2024-01-05T05:03:32.341Z,98423.69
2024-01-05T05:04:18.694Z,98431.00
2024-01-05T05:05:00.552Z,98423.50
2024-01-05T05:05:44.499Z,98428.81
2024-01-05T05:06:27.298Z,98420.59
2024-01-05T05:07:08.976Z,98423.28
2024-01-05T05:07:52.011Z,98420.59
2024-01-05T05:08:33.686Z,98424.50
2024-01-05T05:09:15.465Z,98418.97
2024-01-05T05:09:57.190Z,98413.09
2024-01-05T05:10:38.796Z,98422.13
2024-01-05T05:11:21.169Z,98414.63
2024-01-05T05:12:02.971Z,98410.16
2024-01-05T05:12:44.689Z,98414.63
2024-01-05T05:13:28.977Z,98417.25
2024-01-05T05:14:10.644Z,98429.66
2024-01-05T05:14:54.233Z,98427.38
2024-01-05T05:15:37.699Z,98402.34
2024-01-05T05:16:19.756Z,98438.16
2024-01-05T05:17:01.393Z,98440.25
2024-01-05T05:17:43.070Z,98434.59
2024-01-05T05:18:24.883Z,98436.69
2024-01-05T05:19:07.364Z,98432.41
2024-01-05T05:19:49.141Z,98433.88
2024-01-05T05:20:30.804Z,98439.31
2024-01-05T05:21:12.533Z,98423.03
2024-01-05T05:21:54.179Z,98436.03
2024-01-05T05:22:35.982Z,98435.22
2024-01-05T05:23:17.583Z,98429.78
2024-01-05T05:23:59.410Z,98435.88
2024-01-05T05:24:42.579Z,98432.06
2024-01-05T05:25:25.178Z,98432.47
2024-01-05T05:26:07.120Z,98438.38
2024-01-05T05:26:49.176Z,98412.22
2024-01-05T05:27:34.411Z,98405.78
2024-01-05T05:28:16.149Z,98423.88
2024-01-05T05:28:57.908Z,98416.97
2024-01-05T05:29:39.576Z,98431.81
2024-01-05T05:30:21.535Z,98425.31
2024-01-05T05:31:04.099Z,98431.25
2024-01-05T05:31:46.004Z,98409.91
2024-01-05T05:32:27.984Z,98422.91
2024-01-05T05:33:09.878Z,98429.00
2024-01-05T05:33:52.514Z,98418.25
2024-01-05T05:34:34.322Z,98430.25
2024-01-05T05:35:16.483Z,98431.44
2024-01-05T05:35:58.854Z,98422.06
2024-01-05T05:36:40.572Z,98431.63
2024-01-05T05:37:22.356Z,98429.81
2024-01-05T05:38:04.554Z,98408.63
2024-01-05T05:38:46.244Z,98406.81
2024-01-05T05:39:27.882Z,98427.19
2024-01-05T05:40:10.390Z,98430.00
2024-01-05T05:40:52.176Z,98419.75
2024-01-05T05:41:34.143Z,98420.22
2024-01-05T05:42:15.876Z,98425.47
2024-01-05T05:42:57.468Z,98423.66
2024-01-05T05:43:39.543Z,98416.16
2024-01-05T05:44:21.163Z,98409.59
2024-01-05T05:45:02.937Z,98422.03
2024-01-05T05:45:45.213Z,98423.38
2024-01-05T05:46:27.742Z,98428.28
2024-01-05T05:47:10.066Z,98408.09
2024-01-05T05:47:53.147Z,98406.72
2024-01-05T05:48:35.034Z,98434.00
2024-01-05T05:49:17.145Z,98427.53
2024-01-05T05:49:58.895Z,98390.25
2024-01-05T05:50:40.573Z,98428.78
2024-01-05T05:51:23.531Z,98420.28
2024-01-05T05:52:06.648Z,98423.72
2024-01-05T05:52:48.585Z,98347.81
2024-01-05T05:53:30.199Z,98430.47
2024-01-05T05:54:12.360Z,98432.53
2024-01-05T05:54:54.133Z,98439.88
2024-01-05T05:55:35.741Z,98432.00
2024-01-05T05:56:17.358Z,98414.88
2024-01-05T05:56:59.100Z,98440.31
2024-01-05T05:57:41.492Z,98413.31
2024-01-05T05:58:23.261Z,98426.47
2024-01-05T05:59:04.885Z,98434.00
2024-01-05T05:59:46.525Z,98425.84
2024-01-05T06:00:28.211Z,98403.44
2024-01-05T06:01:14.151Z,98437.06
2024-01-05T06:01:55.785Z,98407.78
2024-01-05T06:02:38.394Z,98427.84
2024-01-05T06:03:20.176Z,98423.63
2024-01-05T06:04:02.153Z,98422.06
2024-01-05T06:04:43.998Z,98427.19
2024-01-05T06:05:25.940Z,98415.03
2024-01-05T06:06:24.763Z,98431.78
2024-01-05T06:07:06.545Z,98431.56
2024-01-05T06:07:48.205Z,98426.13
2024-01-05T06:08:32.659Z,98351.34
2024-01-05T06:09:16.102Z,98403.41
2024-01-05T06:10:03.002Z,98433.34
2024-01-05T06:10:50.180Z,98437.41
2024-01-05T06:11:31.824Z,98437.81
2024-01-05T06:12:14.040Z,98445.72
2024-01-05T06:12:55.938Z,98443.72
2024-01-05T06:13:38.536Z,98421.31
2024-01-05T06:14:20.277Z,98442.91
2024-01-05T06:15:02.044Z,98452.25
2024-01-05T06:15:43.965Z,98456.72
2024-01-05T06:16:25.829Z,98453.50
2024-01-05T06:17:07.436Z,98452.69
2024-01-05T06:17:49.175Z,98442.72
2024-01-05T06:18:30.941Z,98406.31
2024-01-05T06:19:13.296Z,98445.19
2024-01-05T06:19:55.098Z,98473.03
2024-01-05T06:20:36.798Z,98466.13
2024-01-05T06:21:18.479Z,98477.13
2024-01-05T06:22:01.392Z,98476.69
2024-01-05T06:22:44.396Z,98422.53
2024-01-05T06:23:26.029Z,98490.28
2024-01-05T06:24:07.717Z,98473.84
2024-01-05T06:24:49.399Z,98489.28
2024-01-05T06:25:31.029Z,98500.84
2024-01-05T06:26:13.742Z,98489.22
2024-01-05T06:26:55.383Z,98445.25
2024-01-05T06:27:39.344Z,98497.13
2024-01-05T06:28:22.071Z,98500.31
2024-01-05T06:29:04.965Z,98498.84
2024-01-05T06:29:46.651Z,98405.66
2024-01-05T06:30:28.429Z,98498.47
2024-01-05T06:31:10.260Z,98496.84
2024-01-05T06:31:52.953Z,98487.88
2024-01-05T06:32:34.616Z,98508.59
2024-01-05T06:33:16.547Z,98498.88
2024-01-05T06:34:01.502Z,98507.66
2024-01-05T06:34:44.733Z,98506.47
2024-01-05T06:35:26.458Z,98502.81
2024-01-05T06:36:08.137Z,98505.84
2024-01-05T06:36:49.843Z,98494.94
2024-01-05T06:37:31.516Z,98472.94
2024-01-05T06:38:14.313Z,98489.56
2024-01-05T06:38:57.049Z,98489.66
2024-01-05T06:39:39.044Z,98496.31
2024-01-05T06:40:21.711Z,98486.94
2024-01-05T06:41:03.460Z,98487.56
2024-01-05T06:41:45.480Z,98481.69
2024-01-05T06:42:27.398Z,98488.22
2024-01-05T06:43:10.159Z,98478.25
2024-01-05T06:43:51.936Z,98485.25
2024-01-05T06:44:34.022Z,98462.44
2024-01-05T06:45:15.934Z,98470.03
2024-01-05T06:46:06.762Z,98487.53
2024-01-05T06:46:51.673Z,98487.34
2024-01-05T06:47:34.121Z,98494.66
2024-01-05T06:48:15.926Z,98492.47
2024-01-05T06:48:58.445Z,98481.94
2024-01-05T06:49:40.414Z,98493.13
2024-01-05T06:50:22.380Z,98484.16
2024-01-05T06:51:04.534Z,98494.56
2024-01-05T06:51:47.255Z,98488.03
2024-01-05T06:52:29.132Z,98499.22
2024-01-05T06:53:10.770Z,98488.69
2024-01-05T06:53:52.431Z,98498.03
2024-01-05T06:54:35.283Z,98495.38
2024-01-05T06:55:17.123Z,98523.00
2024-01-05T06:55:58.865Z,98501.88
2024-01-05T06:56:43.249Z,98506.00
2024-01-05T06:57:25.158Z,98498.66
2024-01-05T06:58:06.974Z,98491.69
2024-01-05T06:58:50.768Z,98494.47
2024-01-05T06:59:32.366Z,98486.50
2024-01-05T07:00:14.635Z,98497.25
2024-01-05T07:00:56.381Z,98412.63
2024-01-05T07:01:39.115Z,98491.59
2024-01-05T07:02:21.030Z,98485.31
2024-01-05T07:03:03.305Z,98399.28
2024-01-05T07:03:45.124Z,98444.81
2024-01-05T07:04:27.090Z,98474.66
2024-01-05T07:05:08.907Z,98473.97
2024-01-05T07:05:50.540Z,98461.78
2024-01-05T07:06:32.375Z,98480.31
2024-01-05T07:07:17.999Z,98486.66
2024-01-05T07:08:01.292Z,98465.34
2024-01-05T07:08:45.489Z,98484.28
2024-01-05T07:09:27.557Z,98469.25
2024-01-05T07:10:09.687Z,98487.59
2024-01-05T07:10:51.359Z,98478.66
2024-01-05T07:11:32.981Z,98458.34
2024-01-05T07:12:16.776Z,98464.50
2024-01-05T07:13:00.310Z,98476.38
2024-01-05T07:13:43.189Z,98458.13
2024-01-05T07:14:25.172Z,98484.97
2024-01-05T07:15:07.473Z,98488.81
2024-01-05T07:15:56.300Z,98480.47
2024-01-05T07:16:37.949Z,98505.84
2024-01-05T07:17:20.984Z,98496.72
2024-01-05T07:18:02.830Z,98506.06
2024-01-05T07:18:45.452Z,98505.25
2024-01-05T07:19:27.407Z,98489.56
2024-01-05T07:20:09.521Z,98501.13
2024-01-05T07:20:51.493Z,98516.38
2024-01-05T07:21:35.333Z,98511.28
2024-01-05T07:22:16.973Z,98489.50
2024-01-05T07:22:58.677Z,98501.28
2024-01-05T07:23:40.740Z,98488.69
2024-01-05T07:24:22.420Z,98512.91
2024-01-05T07:25:04.510Z,98513.28
2024-01-05T07:25:46.459Z,98515.31
2024-01-05T07:26:28.156Z,98509.63
2024-01-05T07:27:16.292Z,98485.66
2024-01-05T07:27:58.073Z,98520.81
2024-01-05T07:28:39.830Z,98494.38
2024-01-05T07:29:21.479Z,98510.72
2024-01-05T07:30:04.913Z,98521.06
2024-01-05T07:31:07.155Z,98511.72
2024-01-05T07:31:54.921Z,98513.38
2024-01-05T07:32:38.890Z,98498.97
2024-01-05T07:33:20.730Z,98514.81
2024-01-05T07:34:03.732Z,98499.16
2024-01-05T07:34:45.938Z,98503.81
2024-01-05T07:35:29.473Z,98428.00
2024-01-05T07:36:12.912Z,98506.91
2024-01-05T07:36:54.806Z,98502.41
2024-01-05T07:37:39.252Z,98419.38
2024-01-05T07:38:21.002Z,98366.28
2024-01-05T07:39:02.698Z,98448.00
2024-01-05T07:39:44.383Z,98512.47
2024-01-05T07:40:26.096Z,98507.41
2024-01-05T07:41:07.900Z,98498.66
2024-01-05T07:41:50.980Z,98495.31
2024-01-05T07:42:32.689Z,98504.28
2024-01-05T07:43:14.384Z,98512.38
2024-01-05T07:43:56.087Z,98507.94
2024-01-05T07:44:37.827Z,98523.75
2024-01-05T07:45:20.082Z,98505.09
2024-01-05T07:46:04.655Z,98446.31
2024-01-05T07:46:48.250Z,98496.19
2024-01-05T07:47:29.977Z,98511.47
2024-01-05T07:48:11.790Z,98492.13
2024-01-05T07:48:53.587Z,98508.81
2024-01-05T07:49:35.377Z,98472.84
2024-01-05T07:50:17.210Z,98431.38
2024-01-05T07:50:59.186Z,98500.75
2024-01-05T07:51:42.408Z,98498.28
2024-01-05T07:52:24.549Z,98503.16
2024-01-05T07:53:06.130Z,98508.63
2024-01-05T07:53:49.753Z,98476.75
2024-01-05T07:54:31.458Z,98410.03
2024-01-05T07:55:13.315Z,98488.94
2024-01-05T07:55:55.243Z,98486.47
2024-01-05T07:56:41.494Z,98483.84
2024-01-05T07:57:23.149Z,98440.16
2024-01-05T07:58:04.849Z,98460.50
2024-01-05T07:58:49.754Z,98476.56
2024-01-05T07:59:32.932Z,98455.22
2024-01-05T08:00:15.075Z,98476.56
2024-01-05T08:01:02.093Z,98475.56
2024-01-05T08:01:44.719Z,98477.19
2024-01-05T08:02:26.541Z,98468.84
2024-01-05T08:03:08.395Z,98479.44
2024-01-05T08:03:50.233Z,98465.44
2024-01-05T08:04:32.023Z,98457.72
2024-01-05T08:05:14.054Z,98465.47
2024-01-05T08:05:55.909Z,98470.97
2024-01-05T08:06:37.708Z,98470.53
2024-01-05T08:07:19.617Z,98461.75
2024-01-05T08:08:01.325Z,98451.34
2024-01-05T08:08:47.438Z,98458.63
2024-01-05T08:09:30.482Z,98468.97
2024-01-05T08:10:12.292Z,98465.69
2024-01-05T08:10:53.956Z,98466.66
2024-01-05T08:11:35.572Z,98453.41
2024-01-05T08:12:18.262Z,98443.25
2024-01-05T08:13:04.379Z,98437.94
2024-01-05T08:13:49.976Z,98446.47
2024-01-05T08:14:31.688Z,98450.53
2024-01-05T08:15:13.938Z,98444.88
2024-01-05T08:16:08.240Z,98456.25
2024-01-05T08:16:50.266Z,98449.00
2024-01-05T08:17:31.949Z,98446.59
2024-01-05T08:18:13.937Z,98445.59
2024-01-05T08:18:56.047Z,98446.19
2024-01-05T08:19:37.855Z,98432.75